createdAt,value
2018-02-15T00:01:16.053Z,56.20
2018-02-15T00:03:43.752Z,56.00
2018-02-15T00:06:11.295Z,56.00
2018-02-15T00:08:38.823Z,56.00
2018-02-15T00:11:07.085Z,55.90
2018-02-15T00:13:35.387Z,55.90
2018-02-15T00:16:03.648Z,55.90
2018-02-15T00:18:31.210Z,55.90
2018-02-15T00:20:59.527Z,56.00
2018-02-15T00:23:27.067Z,56.00
2018-02-15T00:25:54.570Z,56.00
2018-02-15T00:28:22.087Z,56.40
2018-02-15T00:30:49.609Z,56.50
2018-02-15T00:33:17.884Z,56.70
2018-02-15T00:35:45.442Z,56.40
2018-02-15T00:38:13.716Z,56.30
2018-02-15T00:40:41.268Z,56.20
2018-02-15T00:43:08.781Z,56.30
2018-02-15T00:45:36.300Z,56.00
2018-02-15T00:48:04.591Z,55.30
2018-02-15T00:50:32.153Z,55.30
2018-02-15T00:52:59.659Z,55.20
2018-02-15T00:55:27.156Z,55.30
2018-02-15T00:57:55.451Z,55.50
2018-02-15T01:00:22.962Z,55.30
2018-02-15T01:02:50.499Z,55.20
2018-02-15T01:05:17.999Z,55.20
2018-02-15T01:07:46.327Z,54.80
2018-02-15T01:10:13.834Z,54.80
2018-02-15T01:12:42.150Z,54.60
2018-02-15T01:15:09.656Z,54.60
2018-02-15T01:17:37.160Z,54.40
2018-02-15T01:20:04.687Z,54.40
2018-02-15T01:22:32.950Z,54.10
2018-02-15T01:25:01.267Z,54.30
2018-02-15T01:27:28.784Z,54.30
2018-02-15T01:29:57.074Z,53.90
2018-02-15T01:32:25.341Z,53.60
2018-02-15T01:34:53.643Z,53.50
2018-02-15T01:37:21.169Z,53.50
2018-02-15T01:39:49.452Z,53.40
2018-02-15T01:42:17.715Z,53.30
2018-02-15T01:44:46.023Z,54.20
2018-02-15T01:47:13.523Z,53.50
2018-02-15T01:49:52.979Z,53.30
2018-02-15T01:52:20.472Z,52.90
2018-02-15T01:54:47.975Z,53.10
2018-02-15T01:57:15.554Z,53.00
2018-02-15T01:59:43.052Z,53.10
2018-02-15T02:02:10.595Z,53.10
2018-02-15T02:04:38.866Z,53.30
2018-02-15T02:07:07.146Z,53.20
2018-02-15T02:09:34.680Z,53.20
2018-02-15T02:12:02.187Z,53.40
2018-02-15T02:14:29.713Z,53.40
2018-02-15T02:16:57.975Z,53.50
2018-02-15T02:19:26.263Z,53.40
2018-02-15T02:21:54.583Z,53.30
2018-02-15T02:24:22.127Z,53.30
2018-02-15T02:26:49.633Z,53.50
2018-02-15T02:29:17.128Z,53.50
2018-02-15T02:31:44.650Z,53.40
2018-02-15T02:34:12.256Z,53.50
2018-02-15T02:36:39.775Z,53.50
2018-02-15T02:39:08.139Z,53.60
2018-02-15T02:41:35.668Z,53.60
2018-02-15T02:44:03.180Z,53.40
2018-02-15T02:46:31.470Z,52.80
2018-02-15T02:48:58.970Z,52.80
2018-02-15T02:51:26.483Z,52.90
2018-02-15T02:53:53.998Z,53.00
2018-02-15T02:56:22.269Z,52.90
2018-02-15T02:58:49.804Z,52.80
2018-02-15T03:01:17.304Z,52.80
2018-02-15T03:03:45.587Z,53.00
2018-02-15T03:06:13.863Z,52.40
2018-02-15T03:08:42.160Z,52.80
2018-02-15T03:11:09.664Z,52.70
2018-02-15T03:13:37.193Z,52.80
2018-02-15T03:16:04.686Z,52.60
2018-02-15T03:18:32.228Z,52.90
2018-02-15T03:20:59.768Z,52.80
2018-02-15T03:23:27.277Z,52.40
2018-02-15T03:25:55.587Z,52.80
2018-02-15T03:28:23.099Z,52.20
2018-02-15T03:30:50.623Z,52.60
2018-02-15T03:33:18.125Z,52.40
2018-02-15T03:35:46.427Z,52.40
2018-02-15T03:38:13.935Z,52.50
2018-02-15T03:40:41.432Z,52.90
2018-02-15T03:43:09.735Z,52.80
2018-02-15T03:45:37.243Z,52.70
2018-02-15T03:48:04.757Z,53.00
2018-02-15T03:50:32.247Z,51.40
2018-02-15T03:52:59.816Z,51.90
2018-02-15T03:55:27.311Z,52.00
2018-02-15T03:57:54.853Z,52.20
2018-02-15T04:00:23.127Z,52.50
2018-02-15T04:02:52.177Z,52.60
2018-02-15T04:05:19.696Z,52.50
2018-02-15T04:07:47.209Z,52.60
2018-02-15T04:10:14.727Z,53.40
2018-02-15T04:12:42.224Z,52.70
2018-02-15T04:15:09.763Z,52.80
2018-02-15T04:17:37.307Z,53.30
2018-02-15T04:20:04.828Z,53.30
2018-02-15T04:22:32.330Z,53.40
2018-02-15T04:24:59.839Z,53.80
2018-02-15T04:27:28.124Z,53.60
2018-02-15T04:29:55.632Z,53.60
2018-02-15T04:32:23.153Z,54.10
2018-02-15T04:34:50.656Z,53.50
2018-02-15T04:37:18.193Z,53.60
2018-02-15T04:39:45.707Z,53.50
2018-02-15T04:42:13.203Z,53.80
2018-02-15T04:44:40.720Z,52.60
2018-02-15T04:47:08.233Z,52.80
2018-02-15T04:49:35.755Z,53.00
2018-02-15T04:52:03.263Z,53.10
2018-02-15T04:54:30.784Z,52.60
2018-02-15T04:56:58.292Z,52.40
2018-02-15T04:59:26.591Z,52.80
2018-02-15T05:01:54.140Z,52.80
2018-02-15T05:04:22.397Z,52.70
2018-02-15T05:06:49.920Z,52.70
2018-02-15T05:09:17.428Z,52.70
2018-02-15T05:11:45.728Z,52.80
2018-02-15T05:14:13.249Z,52.80
2018-02-15T05:16:41.837Z,52.90
2018-02-15T05:19:10.124Z,52.20
2018-02-15T05:21:37.650Z,52.20
2018-02-15T05:24:05.943Z,52.00
2018-02-15T05:26:34.231Z,52.00
2018-02-15T05:29:02.503Z,51.90
2018-02-15T05:31:30.789Z,52.10
2018-02-15T05:33:58.284Z,52.10
2018-02-15T05:36:25.816Z,52.10
2018-02-15T05:38:53.327Z,52.60
2018-02-15T05:41:20.868Z,52.70
2018-02-15T05:43:48.390Z,52.40
2018-02-15T05:46:15.916Z,52.60
2018-02-15T05:48:44.193Z,52.70
2018-02-15T05:51:12.479Z,52.70
2018-02-15T05:53:39.978Z,52.70
2018-02-15T05:56:07.497Z,53.00
2018-02-15T05:58:34.996Z,52.90
2018-02-15T06:01:02.539Z,53.00
2018-02-15T06:03:30.067Z,53.20
2018-02-15T06:05:57.572Z,53.40
2018-02-15T06:08:25.140Z,53.60
2018-02-15T06:10:52.675Z,54.20
2018-02-15T06:13:20.221Z,54.00
2018-02-15T06:15:47.752Z,54.50
2018-02-15T06:18:15.312Z,53.60
2018-02-15T06:20:42.863Z,53.40
2018-02-15T06:23:11.163Z,53.20
2018-02-15T06:25:38.722Z,53.20
2018-02-15T06:28:06.260Z,53.20
2018-02-15T06:30:33.830Z,53.10
2018-02-15T06:33:01.378Z,52.80
2018-02-15T06:35:28.924Z,52.60
2018-02-15T06:37:57.232Z,53.10
2018-02-15T06:40:24.807Z,53.10
2018-02-15T06:42:52.339Z,53.60
2018-02-15T06:45:19.876Z,53.30
2018-02-15T06:47:48.468Z,52.80
2018-02-15T06:50:16.756Z,52.30
2018-02-15T06:52:44.328Z,52.30
2018-02-15T06:55:11.870Z,52.30
2018-02-15T06:57:39.420Z,52.30
2018-02-15T07:00:06.952Z,52.50
2018-02-15T07:02:34.507Z,53.30
2018-02-15T07:05:02.045Z,53.50
2018-02-15T07:07:29.607Z,53.00
2018-02-15T07:09:57.189Z,52.70
2018-02-15T07:12:24.728Z,52.80
2018-02-15T07:14:52.404Z,53.30
2018-02-15T07:17:19.943Z,53.30
2018-02-15T07:19:47.523Z,53.00
2018-02-15T07:22:15.825Z,52.60
2018-02-15T07:24:43.354Z,52.30
2018-02-15T07:27:10.933Z,52.20
2018-02-15T07:29:39.241Z,51.90
2018-02-15T07:32:06.800Z,52.00
2018-02-15T07:34:34.334Z,51.70
2018-02-15T07:37:01.900Z,51.70
2018-02-15T07:39:29.436Z,51.80
2018-02-15T07:41:57.781Z,51.50
2018-02-15T07:44:25.342Z,51.50
2018-02-15T07:46:52.914Z,51.30
2018-02-15T07:49:20.464Z,51.30
2018-02-15T07:51:48.024Z,51.30
2018-02-15T07:54:15.577Z,51.10
2018-02-15T07:56:43.156Z,51.00
2018-02-15T07:59:10.765Z,50.80
2018-02-15T08:01:38.303Z,50.50
2018-02-15T08:04:05.857Z,50.10
2018-02-15T08:06:33.396Z,50.20
2018-02-15T08:09:01.728Z,49.60
2018-02-15T08:11:29.250Z,49.50
2018-02-15T08:13:56.824Z,49.70
2018-02-15T08:16:24.370Z,49.60
2018-02-15T08:18:51.928Z,49.80
2018-02-15T08:21:19.471Z,50.10
2018-02-15T08:23:47.772Z,50.20
2018-02-15T08:26:15.348Z,50.20
2018-02-15T08:28:42.880Z,50.50
2018-02-15T08:31:10.433Z,50.90
2018-02-15T08:33:37.972Z,51.40
2018-02-15T08:36:06.310Z,52.60
2018-02-15T08:38:33.849Z,52.60
2018-02-15T08:41:01.425Z,53.60
2018-02-15T08:43:29.013Z,53.70
2018-02-15T08:45:56.548Z,54.20
2018-02-15T08:48:24.105Z,55.00
2018-02-15T08:50:51.637Z,55.70
2018-02-15T08:53:19.203Z,56.20
2018-02-15T08:55:46.743Z,56.20
2018-02-15T08:58:14.449Z,56.40
2018-02-15T09:00:41.988Z,56.90
2018-02-15T09:03:09.551Z,57.10
2018-02-15T09:05:37.100Z,57.40
2018-02-15T09:08:04.652Z,57.80
2018-02-15T09:10:32.264Z,58.00
2018-02-15T09:12:59.837Z,57.80
2018-02-15T09:15:28.212Z,58.40
2018-02-15T09:17:56.511Z,58.90
2018-02-15T09:20:24.098Z,58.80
2018-02-15T09:22:51.641Z,59.20
2018-02-15T09:25:19.222Z,59.70
2018-02-15T09:27:46.751Z,60.20
2018-02-15T09:30:14.328Z,60.50
2018-02-15T09:32:41.852Z,60.50
2018-02-15T09:35:09.429Z,61.10
2018-02-15T09:37:36.965Z,61.00
2018-02-15T09:40:04.533Z,61.40
2018-02-15T09:42:32.079Z,61.70
2018-02-15T09:45:00.384Z,62.30
2018-02-15T09:47:27.943Z,62.30
2018-02-15T09:49:55.470Z,62.70
2018-02-15T09:52:23.886Z,63.50
2018-02-15T09:54:51.430Z,63.40
2018-02-15T09:57:18.996Z,63.60
2018-02-15T09:59:46.538Z,63.50
2018-02-15T10:02:14.116Z,63.50
2018-02-15T10:04:41.658Z,63.40
2018-02-15T10:07:09.203Z,63.00
2018-02-15T10:09:36.801Z,63.20
2018-02-15T10:12:04.355Z,63.20
2018-02-15T10:14:31.941Z,63.50
2018-02-15T10:16:59.500Z,63.40
2018-02-15T10:19:27.112Z,63.80
2018-02-15T10:21:54.650Z,64.70
2018-02-15T10:24:22.949Z,64.70
2018-02-15T10:26:50.501Z,64.60
2018-02-15T10:29:18.052Z,65.20
2018-02-15T10:31:45.628Z,65.20
2018-02-15T10:34:13.160Z,65.90
2018-02-15T10:36:41.488Z,66.20
2018-02-15T10:39:09.021Z,66.10
2018-02-15T10:41:36.589Z,66.60
2018-02-15T10:44:04.126Z,67.00
2018-02-15T10:46:31.663Z,67.50
2018-02-15T10:48:59.983Z,68.50
2018-02-15T10:51:27.531Z,68.50
2018-02-15T10:53:55.113Z,68.80
2018-02-15T10:56:22.661Z,69.30
2018-02-15T10:58:50.249Z,69.70
2018-02-15T11:01:23.569Z,69.90
2018-02-15T11:03:57.725Z,71.00
2018-02-15T11:06:25.251Z,70.80
2018-02-15T11:08:53.655Z,71.00
2018-02-15T11:11:21.223Z,71.80
2018-02-15T11:13:48.754Z,72.50
2018-02-15T11:16:16.331Z,73.30
2018-02-15T11:18:43.876Z,73.70
2018-02-15T11:21:11.432Z,74.50
2018-02-15T11:23:38.965Z,75.00
2018-02-15T11:26:07.282Z,75.80
2018-02-15T11:28:34.824Z,75.60
2018-02-15T11:31:02.381Z,76.00
2018-02-15T11:33:29.929Z,76.90
2018-02-15T11:35:57.488Z,77.00
2018-02-15T11:38:25.021Z,76.80
2018-02-15T11:40:52.633Z,77.00
2018-02-15T11:43:20.180Z,78.30
2018-02-15T11:45:47.738Z,77.50
2018-02-15T11:48:15.309Z,78.00
2018-02-15T11:50:42.877Z,77.60
2018-02-15T11:53:10.439Z,78.00
2018-02-15T11:55:37.978Z,78.70
2018-02-15T11:58:05.545Z,79.00
2018-02-15T12:00:33.099Z,80.20
2018-02-15T12:03:00.665Z,79.90
2018-02-15T12:05:28.196Z,80.20
2018-02-15T12:07:55.732Z,80.80
2018-02-15T12:10:24.071Z,81.30
2018-02-15T12:12:51.596Z,81.30
2018-02-15T12:15:19.153Z,82.80
2018-02-15T12:17:46.696Z,83.40
2018-02-15T12:20:15.041Z,84.80
2018-02-15T12:22:42.584Z,84.80
2018-02-15T12:25:10.104Z,84.70
2018-02-15T12:27:37.661Z,84.60
2018-02-15T12:30:05.233Z,84.70
2018-02-15T12:32:32.770Z,85.10
2018-02-15T12:35:00.312Z,86.20
2018-02-15T12:37:28.669Z,86.30
2018-02-15T12:39:56.202Z,86.30
2018-02-15T12:42:23.792Z,87.00
2018-02-15T12:44:52.190Z,87.00
2018-02-15T12:47:20.525Z,88.00
2018-02-15T12:49:48.160Z,88.00
2018-02-15T12:52:15.765Z,87.80
2018-02-15T12:54:43.304Z,88.20
2018-02-15T12:57:10.855Z,88.50
2018-02-15T12:59:38.440Z,87.70
2018-02-15T13:02:06.761Z,88.00
2018-02-15T13:04:34.311Z,88.00
2018-02-15T13:07:01.853Z,87.90
2018-02-15T13:09:30.204Z,88.60
2018-02-15T13:11:57.741Z,88.50
2018-02-15T13:14:25.272Z,88.40
2018-02-15T13:16:57.684Z,88.40
2018-02-15T13:19:37.015Z,88.20
2018-02-15T13:24:59.997Z,88.90
2018-02-15T13:27:39.401Z,87.90
2018-02-15T13:30:06.928Z,88.60
2018-02-15T13:32:34.484Z,89.10
2018-02-15T13:35:02.066Z,89.00
2018-02-15T13:37:29.638Z,87.70
2018-02-15T13:39:57.200Z,88.40
2018-02-15T13:42:24.756Z,89.00
2018-02-15T13:44:52.337Z,89.00
2018-02-15T13:47:19.870Z,89.10
2018-02-15T13:49:47.420Z,88.10
2018-02-15T13:52:14.952Z,88.90
2018-02-15T13:54:42.526Z,88.70
2018-02-15T13:57:10.103Z,89.40
2018-02-15T13:59:37.645Z,89.70
2018-02-15T14:02:05.198Z,90.10
2018-02-15T14:04:32.756Z,89.90
2018-02-15T14:07:00.316Z,90.00
2018-02-15T14:09:27.879Z,90.00
2018-02-15T14:11:55.722Z,90.00
2018-02-15T14:14:24.027Z,90.00
2018-02-15T14:16:51.556Z,90.00
2018-02-15T14:19:19.873Z,90.00
2018-02-15T14:21:47.412Z,90.00
2018-02-15T14:24:14.983Z,90.30
2018-02-15T14:26:42.630Z,90.20
2018-02-15T14:29:10.947Z,90.30
2018-02-15T14:31:39.502Z,90.30
2018-02-15T14:34:07.048Z,90.10
2018-02-15T14:36:34.588Z,90.20
2018-02-15T14:39:02.200Z,90.40
2018-02-15T14:41:29.741Z,90.60
2018-02-15T14:43:57.311Z,90.60
2018-02-15T14:46:24.869Z,90.60
2018-02-15T14:48:52.411Z,90.40
2018-02-15T14:51:19.990Z,90.40
2018-02-15T14:53:47.513Z,90.40
2018-02-15T14:56:15.077Z,90.40
2018-02-15T14:58:42.641Z,90.30
2018-02-15T15:01:10.216Z,90.30
2018-02-15T15:03:37.760Z,90.20
2018-02-15T15:06:05.308Z,90.30
2018-02-15T15:08:32.886Z,90.30
2018-02-15T15:11:00.423Z,90.20
2018-02-15T15:13:28.007Z,90.20
2018-02-15T15:15:55.556Z,90.20
2018-02-15T15:18:23.134Z,90.30
2018-02-15T15:20:50.673Z,90.40
2018-02-15T15:23:18.248Z,90.30
2018-02-15T15:25:45.810Z,90.40
2018-02-15T15:28:13.341Z,90.40
2018-02-15T15:30:40.942Z,90.40
2018-02-15T15:33:08.484Z,90.50
2018-02-15T15:35:36.111Z,90.70
2018-02-15T15:38:03.633Z,90.90
2018-02-15T15:40:31.960Z,91.10
2018-02-15T15:42:59.504Z,91.10
2018-02-15T15:45:27.043Z,91.20
2018-02-15T15:47:55.373Z,91.40
2018-02-15T15:50:22.932Z,91.40
2018-02-15T15:52:50.488Z,91.60
2018-02-15T15:55:18.029Z,91.60
2018-02-15T15:57:45.605Z,91.60
2018-02-15T16:00:13.148Z,91.60
2018-02-15T16:02:40.720Z,91.70
2018-02-15T16:05:08.264Z,91.90
2018-02-15T16:07:35.812Z,91.80
2018-02-15T16:10:03.383Z,92.00
2018-02-15T16:12:30.958Z,92.00
2018-02-15T16:14:58.515Z,92.00
2018-02-15T16:17:26.060Z,91.90
2018-02-15T16:19:53.739Z,92.00
2018-02-15T16:22:21.308Z,91.90
2018-02-15T16:24:48.895Z,91.90
2018-02-15T16:27:17.207Z,91.80
2018-02-15T16:29:44.768Z,91.80
2018-02-15T16:32:12.328Z,92.00
2018-02-15T16:34:39.886Z,91.70
2018-02-15T16:37:07.452Z,91.70
2018-02-15T16:39:35.029Z,91.80
2018-02-15T16:42:02.608Z,91.80
2018-02-15T16:44:30.162Z,91.80
2018-02-15T16:46:58.494Z,92.00
2018-02-15T16:49:26.047Z,91.90
2018-02-15T16:51:53.597Z,92.10
2018-02-15T16:54:21.201Z,92.10
2018-02-15T16:56:48.766Z,92.10
2018-02-15T16:59:16.353Z,92.30
2018-02-15T17:01:44.683Z,92.50
2018-02-15T17:04:12.259Z,92.40
2018-02-15T17:06:39.842Z,92.60
2018-02-15T17:09:08.190Z,92.60
2018-02-15T17:11:35.736Z,92.60
2018-02-15T17:14:03.292Z,92.60
2018-02-15T17:16:30.859Z,92.50
2018-02-15T17:18:58.453Z,92.50
2018-02-15T17:21:26.799Z,92.70
2018-02-15T17:23:54.347Z,92.70
2018-02-15T17:26:21.915Z,92.80
2018-02-15T17:28:49.470Z,92.70
2018-02-15T17:31:17.007Z,92.70
2018-02-15T17:33:44.768Z,92.80
2018-02-15T17:36:12.322Z,92.90
2018-02-15T17:38:39.914Z,93.00
2018-02-15T17:41:07.440Z,92.90
2018-02-15T17:43:35.028Z,93.10
2018-02-15T17:46:02.572Z,93.20
2018-02-15T17:48:30.175Z,93.20
2018-02-15T17:50:58.582Z,93.30
2018-02-15T17:53:26.140Z,93.20
2018-02-15T17:55:53.732Z,93.30
2018-02-15T17:58:21.299Z,93.30
2018-02-15T18:00:48.934Z,93.20
2018-02-15T18:03:16.493Z,93.20
2018-02-15T18:05:44.117Z,93.20
2018-02-15T18:08:12.434Z,93.30
2018-02-15T18:10:40.005Z,93.20
2018-02-15T18:13:07.592Z,93.40
2018-02-15T18:15:35.144Z,93.40
2018-02-15T18:18:02.725Z,93.40
2018-02-15T18:20:31.041Z,93.40
2018-02-15T18:22:58.614Z,93.30
2018-02-15T18:25:26.151Z,93.50
2018-02-15T18:27:53.735Z,93.40
2018-02-15T18:30:21.358Z,93.60
2018-02-15T18:32:48.910Z,93.50
2018-02-15T18:35:16.477Z,93.50
2018-02-15T18:37:44.053Z,93.60
2018-02-15T18:40:11.928Z,93.40
2018-02-15T18:42:39.472Z,93.40
2018-02-15T18:45:07.062Z,93.40
2018-02-15T18:47:34.625Z,93.40
2018-02-15T18:50:02.236Z,93.30
2018-02-15T18:52:29.849Z,93.40
2018-02-15T18:54:57.439Z,93.40
2018-02-15T18:57:25.777Z,93.60
2018-02-15T18:59:53.335Z,93.60
2018-02-15T19:02:20.901Z,93.70
2018-02-15T19:04:48.444Z,93.80
2018-02-15T19:07:15.992Z,93.80
2018-02-15T19:09:43.617Z,94.00
2018-02-15T19:12:11.195Z,94.10
2018-02-15T19:14:38.777Z,94.20
2018-02-15T19:17:06.395Z,94.50
2018-02-15T19:19:33.954Z,94.40
2018-02-15T19:22:01.510Z,94.40
2018-02-15T19:24:29.346Z,94.40
2018-02-15T19:26:56.936Z,94.30
2018-02-15T19:29:24.515Z,94.40
2018-02-15T19:31:52.107Z,94.30
2018-02-15T19:34:19.672Z,94.20
2018-02-15T19:36:47.405Z,94.20
2018-02-15T19:39:14.954Z,94.20
2018-02-15T19:41:42.542Z,94.10
2018-02-15T19:44:10.099Z,94.00
2018-02-15T19:46:37.687Z,94.00
2018-02-15T19:49:05.270Z,93.90
2018-02-15T19:51:32.814Z,93.80
2018-02-15T19:54:00.514Z,93.80
2018-02-15T19:56:28.056Z,93.80
2018-02-15T19:58:55.641Z,93.80
2018-02-15T20:01:23.192Z,93.80
2018-02-15T20:03:50.778Z,93.70
2018-02-15T20:06:18.340Z,93.70
2018-02-15T20:08:46.018Z,93.60
2018-02-15T20:11:14.390Z,93.50
2018-02-15T20:13:41.971Z,93.50
2018-02-15T20:16:10.349Z,93.50
2018-02-15T20:18:38.663Z,93.50
2018-02-15T20:21:06.250Z,93.50
2018-02-15T20:23:34.863Z,93.70
2018-02-15T20:26:09.014Z,93.80
2018-02-15T20:28:36.577Z,93.70
2018-02-15T20:31:04.392Z,93.70
2018-02-15T20:33:32.745Z,93.80
2018-02-15T20:36:00.324Z,93.80
2018-02-15T20:38:34.306Z,93.60
2018-02-15T20:41:01.909Z,93.60
2018-02-15T20:43:30.285Z,93.90
2018-02-15T20:45:58.625Z,93.80
2018-02-15T20:48:26.189Z,93.80
2018-02-15T20:50:59.510Z,93.80
2018-02-15T20:53:33.488Z,93.80
2018-02-15T20:56:01.060Z,93.80
2018-02-15T20:58:30.147Z,93.60
2018-02-15T21:00:57.708Z,93.60
2018-02-15T21:03:25.430Z,93.50
2018-02-15T21:05:53.005Z,93.40
2018-02-15T21:08:20.595Z,93.40
2018-02-15T21:10:48.179Z,93.70
2018-02-15T21:13:16.560Z,93.30
2018-02-15T21:15:44.119Z,93.60
2018-02-15T21:18:12.933Z,93.20
2018-02-15T21:20:40.569Z,93.10
2018-02-15T21:23:08.155Z,93.20
2018-02-15T21:25:35.804Z,93.20
2018-02-15T21:28:03.373Z,93.10
2018-02-15T21:30:31.056Z,93.30
2018-02-15T21:32:58.601Z,93.30
2018-02-15T21:35:26.189Z,93.40
2018-02-15T21:37:53.731Z,93.40
2018-02-15T21:40:21.327Z,93.40
2018-02-15T21:42:49.651Z,93.50
2018-02-15T21:45:17.197Z,93.40
2018-02-15T21:47:44.777Z,93.40
2018-02-15T21:50:12.308Z,93.40
2018-02-15T21:52:39.866Z,93.40
2018-02-15T21:55:07.407Z,93.50
2018-02-15T21:57:35.037Z,93.50
2018-02-15T22:00:02.588Z,93.50
2018-02-15T22:02:30.897Z,93.50
2018-02-15T22:04:58.486Z,93.60
2018-02-15T22:07:26.044Z,93.60
2018-02-15T22:09:53.628Z,93.60
2018-02-15T22:12:21.166Z,93.60
2018-02-15T22:14:48.739Z,93.50
2018-02-15T22:17:16.343Z,93.60
2018-02-15T22:19:44.652Z,93.60
2018-02-15T22:22:12.158Z,93.60
2018-02-15T22:24:39.946Z,93.60
2018-02-15T22:27:08.250Z,93.60
2018-02-15T22:29:35.772Z,93.60
2018-02-15T22:32:04.067Z,93.60
2018-02-15T22:34:31.587Z,93.60
2018-02-15T22:36:59.112Z,93.60
2018-02-15T22:39:27.032Z,93.60
2018-02-15T22:41:55.318Z,93.60
2018-02-15T22:44:23.632Z,93.60
2018-02-15T22:46:51.184Z,93.60
2018-02-15T22:49:18.719Z,93.60
2018-02-15T22:51:46.234Z,93.60
2018-02-15T22:54:13.768Z,93.50
2018-02-15T22:56:41.335Z,93.50
2018-02-15T22:59:08.864Z,93.50
2018-02-15T23:01:36.372Z,93.60
2018-02-15T23:04:03.917Z,93.80
2018-02-15T23:06:31.622Z,96.50
2018-02-15T23:08:59.232Z,99.10
2018-02-15T23:11:26.776Z,99.50
2018-02-15T23:13:54.335Z,98.20
2018-02-15T23:16:21.868Z,96.90
2018-02-15T23:18:51.379Z,93.10
2018-02-15T23:21:18.955Z,92.40
2018-02-15T23:23:46.507Z,91.60
2018-02-15T23:26:14.024Z,91.60
2018-02-15T23:28:42.335Z,91.60
2018-02-15T23:31:09.894Z,91.60
2018-02-15T23:33:37.416Z,91.70
2018-02-15T23:36:05.716Z,92.00
2018-02-15T23:38:33.260Z,92.00
2018-02-15T23:41:01.549Z,92.30
2018-02-15T23:43:29.091Z,92.30
2018-02-15T23:45:57.697Z,92.60
2018-02-15T23:48:25.241Z,92.50
2018-02-15T23:50:52.775Z,92.60
2018-02-15T23:53:20.285Z,92.70
2018-02-15T23:55:47.831Z,93.10
2018-02-15T23:58:15.346Z,92.90
